Hidden Valley, Valles Caldera, New Mexico Weather observations

Data are for 10 minute period ending at time listed.
 Day   Time   Solar   Ave.   Ave.  Ave.  Vector  Max.   Baro.   Total    
  of    of     Rad.   Air    Rel.  Wind   Wind   Wind  Press.  Precip.   
Year   Day            Temp.  Hum.  Speed  Dir.   Gust                    
2026   (MST)  Kw/m2    F      %     mph   deg.    mph    mb.     in.     
-------------------------------------------------------------------------
 123   17:30   0.20   58.1    19    2.6   284     6.7     0.0    0.01 
 123   17:40   0.14   57.3    19    1.7   260     5.6     0.0    0.01 
 123   17:50   0.09   57.1    20    1.8   245     7.6     0.0    0.01 
 123   18:00   0.05   56.7    19    1.5   264     4.5     0.0    0.01 
 123   18:10   0.03   55.8    22    1.4   245     3.4     0.0    0.01 
 123   18:20   0.02   55.5    21    2.1   267     4.5     0.0    0.01 
 123   18:30   0.02   55.1    22    1.9   243     3.2     0.0    0.01 
 123   18:40   0.01   54.4    24    1.8   253     3.5     0.0    0.01 
 123   18:50   0.01   52.1    29    1.5   240     2.5     0.0    0.01 
 123   19:00   0.00   50.7    32    1.7   246     2.7     0.0    0.01 
 123   19:10   0.00   47.8    39    1.1   224     1.8     0.0    0.01 
 123   19:20   0.00   46.0    42    1.1   220     2.1     0.0    0.01 
 123   19:30   0.00   45.5    41    1.3   219     2.6     0.0    0.01 
 123   19:40   0.00   44.3    45    0.8   202     1.7     0.0    0.01 
 123   19:50   0.00   45.0    44    1.3   217     2.5     0.0    0.01 
 123   20:00   0.00   46.5    43    1.4   256     2.3     0.0    0.01 
 123   20:10   0.00   46.6    45    1.5   254     2.5     0.0    0.01 
 123   20:20   0.00   46.8    46    1.4   227     2.4     0.0    0.01 
 123   20:30   0.00   45.2    50    1.5   210     2.7     0.0    0.01 
 123   20:40   0.00   45.8    50    2.3   204     3.8     0.0    0.01 
 123   20:50   0.00   45.2    50    2.1   213     3.1     0.0    0.01 
 123   21:00   0.00   45.2    53    2.6   214     4.1     0.0    0.01 
 123   21:10   0.00   46.4    53    2.8   222     5.0     0.0    0.01 
 123   21:20   0.00   47.1    58    2.5   223     4.5     0.0    0.01 
 123   21:30   0.00   47.5    57    2.3   225     5.1     0.0    0.01 
 123   21:40   0.00   46.3    60    1.8   230     4.1     0.0    0.01 
 123   21:50   0.00   47.4    61    2.0   228     3.3     0.0    0.01 
 123   22:00   0.00   44.3    63    1.5   333     2.9     0.0    0.01 
 123   22:10   0.00   33.3    81    1.0    16     2.5     0.0    0.01 
 123   22:20   0.00   33.9    81    0.4    54     1.6     0.0    0.01 
 123   22:30   0.00   35.7    84    0.5   257     2.0     0.0    0.01 
 123   22:40   0.00   36.3    81    1.0    20     1.7     0.0    0.01 
 123   22:50   0.00   33.0    87    0.0    23     0.7     0.0    0.01 
 123   23:00   0.00   34.7    86    0.6   321     1.2     0.0    0.01 
 123   23:10   0.00   32.3    88    1.0   338     1.8     0.0    0.01 
 123   23:20   0.00   33.0    86    0.9   256     1.6     0.0    0.01 
 123   23:30   0.00   33.6    88    1.2   182     2.5     0.0    0.01 
 123   23:40   0.00   32.4    87    0.4   184     1.0     0.0    0.01 
 123   23:50   0.00   34.2    90    1.3   190     2.4     0.0    0.01 
 124    0:00   0.00   36.6    84    2.2   196     3.1     0.0    0.01 
 124    0:10   0.00   36.3    82    1.7   202     3.0     0.0    0.01 
 124    0:20   0.00   35.7    83    1.4   344     3.1     0.0    0.01 
 124    0:30   0.00   32.1    90    1.1   313     1.6     0.0    0.01 
 124    0:40   0.00   32.2    90    0.7    33     1.7     0.0    0.01 
 124    0:50   0.00   32.2    91    0.3    65     1.5     0.0    0.01 
 124    1:00   0.00   33.2    92    0.4   121     1.5     0.0    0.01 
 124    1:10   0.00   34.1    88    0.0   136     0.6     0.0    0.01 
 124    1:20   0.00   34.6    89    0.4   135     1.8     0.0    0.01 
 124    1:30   0.00   36.6    88    1.5   110     3.4     0.0    0.01 
 124    1:40   0.00   38.1    83    1.9   212     3.0     0.0    0.01 
 124    1:50   0.00   39.6    77    1.4   184     2.9     0.0    0.01 
 124    2:00   0.00   37.8    81    1.3   190     2.5     0.0    0.01 
 124    2:10   0.00   37.2    83    1.0   203     2.2     0.0    0.01 
 124    2:20   0.00   37.0    83    1.6   191     2.5     0.0    0.01 
 124    2:30   0.00   36.8    83    1.2   219     2.4     0.0    0.01 
 124    2:40   0.00   36.2    84    1.4   213     3.1     0.0    0.01 
 124    2:50   0.00   36.2    85    2.8   191     3.5     0.0    0.01 
 124    3:00   0.00   37.6    82    2.5   214     3.5     0.0    0.01 
 124    3:10   0.00   37.7    81    2.1   216     4.2     0.0    0.01 
 124    3:20   0.00   35.2    86    0.9   339     1.8     0.0    0.01 
 124    3:30   0.00   34.5    89    0.4   269     1.5     0.0    0.01 
 124    3:40   0.00   34.8    88    1.2   187     2.4     0.0    0.01 
 124    3:50   0.00   34.8    87    0.4   184     1.7     0.0    0.01 
 124    4:00   0.00   33.3    90    0.1   190     0.9     0.0    0.01 
 124    4:10   0.00   33.8    92    0.9   211     2.5     0.0    0.01 
 124    4:20   0.00   35.4    86    0.8   204     1.8     0.0    0.01 
 124    4:30   0.00   35.6    85    1.3   222     1.9     0.0    0.01 
 124    4:40   0.00   36.4    84    1.6   198     2.8     0.0    0.01 
 124    4:50   0.00   36.1    83    1.2   298     2.3     0.0    0.01 
 124    5:00   0.00   31.9    90    0.9     1     1.8     0.0    0.01 
 124    5:10   0.00   31.8    93    0.4   296     1.2     0.0    0.01 
 124    5:20   0.00   32.5    93    0.9   206     1.8     0.0    0.01 
 124    5:30   0.01   34.2    89    0.5   184     1.5     0.0    0.01 
 124    5:40   0.01   33.0    90    0.8    22     2.3     0.0    0.01 
 124    5:50   0.02   31.5    93    0.2   248     1.4     0.0    0.01 
 124    6:00   0.03   32.9    94    0.5   190     2.0     0.0    0.01 
 124    6:10   0.04   39.8    79    1.6   202     2.8     0.0    0.01 
 124    6:20   0.05   44.8    62    2.3   232     4.2     0.0    0.01 
 124    6:30   0.06   45.1    62    1.7   213     3.1     0.0    0.01 
 124    6:40   0.07   44.9    60    1.6   209     3.5     0.0    0.01 
 124    6:50   0.09   45.6    58    1.5   213     3.8     0.0    0.01 
 124    7:00   0.10   45.9    57    1.3   229     3.8     0.0    0.01 
 124    7:10   0.13   46.1    57    1.1   208     3.2     0.0    0.01 
 124    7:20   0.17   46.6    53    2.0   258     4.5     0.0    0.01 
 124    7:30   0.19   46.9    52    2.2   240     5.1     0.0    0.01 
 124    7:40   0.23   47.2    51    2.0   235     4.1     0.0    0.01 
 124    7:50   0.30   47.5    50    2.1   247     4.9     0.0    0.01 
 124    8:00   0.30   47.9    48    2.6   256     5.6     0.0    0.01 
 124    8:10   0.38   48.4    47    2.8   231     7.8     0.0    0.01 
 124    8:20   0.43   49.0    45    2.9   257     7.4     0.0    0.01 
 124    8:30   0.44   49.3    44    3.2   254     7.2     0.0    0.01 
 124    8:40   0.50   49.8    43    3.4   284     7.5     0.0    0.01 
 124    8:50   0.58   50.3    43    4.0   285     7.4     0.0    0.01 
 124    9:00   0.50   50.5    42    3.2   289     6.9     0.0    0.01 
 124    9:10   0.49   50.8    42    2.1   301     5.7     0.0    0.01 
 124    9:20   0.55   51.5    41    2.9   300     6.4     0.0    0.01 
 124    9:30   0.55   51.4    40    3.1   306     7.5     0.0    0.01 
 124    9:40   0.53   51.2    38    3.0   252     7.5     0.0    0.01 
 124    9:50   0.52   51.2    38    3.2   258     6.9     0.0    0.01 
 124   10:00   0.59   51.3    37    2.9   276     5.8     0.0    0.01 
 124   10:10   0.67   51.8    35    3.5   253     8.4     0.0    0.01 
 124   10:20   0.83   52.5    34    2.7   288     6.2     0.0    0.01 
 124   10:30   0.71   53.9    34    2.6   297     6.7     0.0    0.01 
 124   10:40   0.73   53.6    33    3.1   256     8.8     0.0    0.01 
 124   10:50   0.84   54.4    33    2.3   248     9.4     0.0    0.01 
 124   11:00   0.72   54.1    32    3.8   213     8.2     0.0    0.01 
 124   11:10   0.61   53.2    32    5.5   206    10.0     0.0    0.01 
 124   11:20   0.58   53.1    32    4.2   210     8.8     0.0    0.01 
 124   11:30   0.66   54.2    32    2.4   259     9.1     0.0    0.01 
 124   11:40   0.70   53.4    30    5.2   204     9.3     0.0    0.01 
 124   11:50   0.73   53.5    29    5.7   200    10.1     0.0    0.01 
 124   12:00   0.66   54.0    26    5.7   199    10.4     0.0    0.01 
 124   12:10   0.82   54.6    25    4.1   250    11.2     0.0    0.01 
 124   12:20   0.69   54.6    25    3.9   229    11.2     0.0    0.01 
 124   12:30   0.77   54.9    25    3.4   236     8.8     0.0    0.01 
 124   12:40   0.84   55.9    23    3.4   242    10.8     0.0    0.01 
 124   12:50   0.70   55.5    22    4.9   227     9.8     0.0    0.01 
 124   13:00   0.60   55.7    20    3.3   284     7.7     0.0    0.01 
 124   13:10   0.54   55.8    21    3.1   253     9.9     0.0    0.01 
 124   13:20   0.55   55.3    21    2.8   256     7.6     0.0    0.01 
 124   13:30   0.55   55.7    22    4.1   228     9.9     0.0    0.01 
 124   13:40   0.49   55.1    23    6.6   213    11.8     0.0    0.01 
 124   13:50   0.46   55.2    23    4.6   238     8.7     0.0    0.01 
 124   14:00   0.55   55.2    24    3.4   238     7.3     0.0    0.01 
 124   14:10   0.60   56.3    24    2.4   219     7.4     0.0    0.01 
 124   14:20   0.47   56.4    24    3.3   258     8.7     0.0    0.01 
 124   14:30   0.49   55.9    25    3.5   255     9.5     0.0    0.01 
 124   14:40   0.62   56.8    25    2.5   267     9.2     0.0    0.01 
 124   14:50   0.45   56.4    25    2.6   250     5.4     0.0    0.01 
 124   15:00   0.45   56.8    25    2.7   231     8.1     0.0    0.01 
 124   15:10   0.45   56.4    25    2.7   247     7.1     0.0    0.01 
 124   15:20   0.57   57.3    25    3.2   232     7.9     0.0    0.01 
 124   15:30   0.56   57.5    25    3.2   239     7.9     0.0    0.01 
 124   15:40   0.43   57.1    25    2.1   266     6.0     0.0    0.01 
 124   15:50   0.45   57.4    25    4.8   218     9.9     0.0    0.01 
 124   16:00   0.47   57.6    24    4.0   220     8.5     0.0    0.01 
 124   16:10   0.33   57.6    23    3.5   242    10.0     0.0    0.01 
 124   16:20   0.22   56.9    24    3.4   240     7.5     0.0    0.01 
 124   16:30   0.18   56.6    23    3.8   252     9.0     0.0    0.01 
 124   16:40   0.20   56.6    23    2.4   296     6.9     0.0    0.01 
 124   16:50   0.20   56.8    22    2.3   248     5.8     0.0    0.01 
 124   17:00   0.18   56.9    22    1.9   228     5.2     0.0    0.01 
 124   17:10   0.18   56.8    22    1.8   233     4.8     0.0    0.01 
 124   17:20   0.17   56.4    23    2.1   235     5.0     0.0    0.01 

Return to Hidden Valley, Valles Caldera graphs page.


Western Regional Climate Center,wrcc@dri.edu